createdAt,value
2018-09-06T00:00:12.929Z,21.69
2018-09-06T00:02:45.759Z,21.68
2018-09-06T00:05:14.743Z,21.68
2018-09-06T00:07:43.631Z,21.74
2018-09-06T00:10:14.577Z,21.67
2018-09-06T00:12:43.467Z,21.61
2018-09-06T00:15:12.357Z,21.60
2018-09-06T00:17:49.320Z,21.67
2018-09-06T00:20:18.176Z,21.69
2018-09-06T00:22:49.097Z,21.64
2018-09-06T00:25:21.897Z,21.63
2018-09-06T00:27:50.822Z,21.59
2018-09-06T00:30:44.147Z,21.57
2018-09-06T00:33:13.033Z,21.49
2018-09-06T00:35:41.928Z,21.49
2018-09-06T00:38:11.004Z,21.43
2018-09-06T00:40:39.911Z,21.44
2018-09-06T00:43:32.444Z,21.40
2018-09-06T00:46:01.332Z,21.36
2018-09-06T00:48:30.346Z,21.35
2018-09-06T00:50:59.251Z,21.34
2018-09-06T00:53:28.241Z,21.32
2018-09-06T00:55:57.163Z,21.33
2018-09-06T00:58:26.024Z,21.32
2018-09-06T01:00:54.972Z,21.22
2018-09-06T01:03:23.883Z,21.12
2018-09-06T01:05:52.815Z,21.15
2018-09-06T01:08:22.014Z,21.20
2018-09-06T01:11:02.292Z,21.09
2018-09-06T01:13:31.180Z,21.11
2018-09-06T01:16:07.112Z,21.16
2018-09-06T01:18:36.154Z,21.16
2018-09-06T01:21:05.061Z,21.15
2018-09-06T01:23:33.990Z,21.18
2018-09-06T01:26:02.930Z,21.09
2018-09-06T01:28:31.834Z,21.06
2018-09-06T01:31:01.116Z,21.11
2018-09-06T01:33:29.986Z,21.14
2018-09-06T01:36:04.130Z,21.19
2018-09-06T01:38:33.026Z,21.17
2018-09-06T01:41:03.091Z,21.16
2018-09-06T01:43:31.965Z,21.17
2018-09-06T01:46:00.849Z,21.14
2018-09-06T01:48:29.716Z,21.18
2018-09-06T01:50:58.688Z,21.19
2018-09-06T01:53:28.154Z,21.17
2018-09-06T01:55:57.542Z,21.18
2018-09-06T02:01:22.004Z,21.09
2018-09-06T02:03:51.176Z,21.01
2018-09-06T02:06:22.057Z,20.90
2018-09-06T02:08:50.952Z,20.86
2018-09-06T02:17:15.206Z,20.68
2018-09-06T02:19:44.118Z,20.84
2018-09-06T02:22:13.060Z,20.73
2018-09-06T02:27:41.802Z,20.87
2018-09-06T02:30:10.689Z,20.85
2018-09-06T02:32:39.562Z,20.84
2018-09-06T02:35:08.477Z,20.74
2018-09-06T02:37:37.755Z,20.78
2018-09-06T02:40:07.449Z,20.74
2018-09-06T02:42:36.337Z,20.80
2018-09-06T02:45:05.331Z,20.87
2018-09-06T02:47:50.070Z,20.74
2018-09-06T02:50:24.409Z,20.78
2018-09-06T02:52:57.350Z,20.44
2018-09-06T02:55:28.719Z,20.36
2018-09-06T02:57:58.307Z,20.35
2018-09-06T03:00:31.902Z,20.24
2018-09-06T03:03:00.964Z,20.25
2018-09-06T03:05:37.576Z,20.28
2018-09-06T03:08:06.457Z,20.11
2018-09-06T03:10:38.960Z,20.11
2018-09-06T03:13:07.885Z,20.15
2018-09-06T03:15:46.663Z,20.21
2018-09-06T03:18:15.545Z,20.20
2018-09-06T03:20:44.601Z,20.16
2018-09-06T03:23:19.140Z,20.07
2018-09-06T03:25:48.147Z,20.05
2018-09-06T03:28:17.061Z,20.06
2018-09-06T03:30:49.846Z,20.01
2018-09-06T03:33:18.776Z,20.08
2018-09-06T03:36:09.288Z,19.99
2018-09-06T03:38:38.195Z,19.86
2018-09-06T03:41:14.055Z,19.77
2018-09-06T03:43:50.325Z,19.80
2018-09-06T03:49:25.764Z,19.85
2018-09-06T03:51:54.788Z,19.84
2018-09-06T03:54:27.557Z,19.73
2018-09-06T03:57:07.964Z,19.68
2018-09-06T03:59:50.294Z,19.70
2018-09-06T04:02:22.694Z,19.62
2018-09-06T04:07:55.400Z,19.63
2018-09-06T04:10:24.388Z,19.62
2018-09-06T04:13:09.728Z,19.67
2018-09-06T04:15:38.642Z,19.60
2018-09-06T04:18:15.851Z,19.42
2018-09-06T04:20:51.631Z,19.31
2018-09-06T04:23:25.046Z,19.28
2018-09-06T04:25:54.018Z,19.44
2018-09-06T04:28:26.762Z,19.44
2018-09-06T04:30:55.644Z,19.58
2018-09-06T04:33:28.343Z,19.47
2018-09-06T04:35:59.356Z,19.35
2018-09-06T04:38:28.301Z,19.30
2018-09-06T04:41:09.929Z,19.17
2018-09-06T04:43:45.437Z,19.16
2018-09-06T04:46:14.268Z,19.11
2018-09-06T04:48:43.264Z,19.24
2018-09-06T04:51:12.182Z,19.20
2018-09-06T04:53:41.161Z,19.22
2018-09-06T04:56:20.763Z,19.28
2018-09-06T04:58:49.737Z,19.27
2018-09-06T05:01:32.001Z,19.15
2018-09-06T05:04:07.259Z,19.24
2018-09-06T05:06:42.807Z,19.26
2018-09-06T05:09:17.205Z,19.18
2018-09-06T05:11:50.025Z,19.29
2018-09-06T05:14:23.245Z,19.35
2018-09-06T05:16:56.008Z,19.21
2018-09-06T05:19:48.615Z,19.16
2018-09-06T05:22:18.600Z,19.17
2018-09-06T05:24:51.007Z,19.24
2018-09-06T05:27:43.050Z,19.10
2018-09-06T05:30:25.602Z,19.14
2018-09-06T05:33:04.929Z,19.08
2018-09-06T05:35:38.070Z,19.09
2018-09-06T05:38:09.915Z,19.14
2018-09-06T05:40:42.133Z,19.11
2018-09-06T05:43:11.135Z,19.16
2018-09-06T05:48:35.769Z,19.20
2018-09-06T05:51:04.755Z,19.00
2018-09-06T05:53:33.765Z,19.09
2018-09-06T05:56:15.564Z,19.08
2018-09-06T05:58:56.481Z,18.99
2018-09-06T06:01:25.412Z,18.96
2018-09-06T06:03:54.277Z,18.96
2018-09-06T06:06:23.224Z,18.98
2018-09-06T06:08:52.817Z,19.04
2018-09-06T06:11:21.976Z,18.99
2018-09-06T06:13:50.887Z,19.00
2018-09-06T06:16:23.352Z,19.04
2018-09-06T06:19:11.441Z,19.05
2018-09-06T06:21:40.345Z,18.96
2018-09-06T06:24:09.236Z,18.95
2018-09-06T06:29:39.430Z,18.96
2018-09-06T06:32:08.415Z,18.93
2018-09-06T06:34:43.340Z,18.90
2018-09-06T06:37:12.299Z,18.91
2018-09-06T06:39:41.255Z,18.89
2018-09-06T06:42:10.153Z,18.96
2018-09-06T06:44:39.081Z,18.98
2018-09-06T06:47:08.098Z,18.90
2018-09-06T06:49:37.104Z,18.99
2018-09-06T06:52:06.263Z,19.00
2018-09-06T06:54:36.170Z,18.99
2018-09-06T06:57:05.099Z,19.01
2018-09-06T06:59:34.050Z,18.94
2018-09-06T07:02:10.748Z,18.94
2018-09-06T07:04:39.941Z,18.97
2018-09-06T07:07:08.818Z,19.01
2018-09-06T07:09:37.803Z,18.98
2018-09-06T07:12:06.891Z,18.95
2018-09-06T07:14:35.851Z,18.98
2018-09-06T07:17:04.772Z,19.03
2018-09-06T07:19:50.573Z,19.04
2018-09-06T07:22:36.125Z,18.99
2018-09-06T07:25:05.111Z,19.00
2018-09-06T07:27:34.041Z,19.09
2018-09-06T07:30:03.001Z,19.11
2018-09-06T07:32:31.852Z,19.12
2018-09-06T07:35:00.741Z,19.17
2018-09-06T07:37:35.337Z,19.11
2018-09-06T07:40:28.592Z,19.08
2018-09-06T07:43:03.344Z,19.15
2018-09-06T07:45:32.237Z,19.21
2018-09-06T07:48:19.925Z,19.07
2018-09-06T07:50:48.818Z,19.10
2018-09-06T07:53:17.712Z,19.10
2018-09-06T07:55:55.111Z,19.04
2018-09-06T07:58:24.012Z,19.13
2018-09-06T08:00:52.874Z,19.14
2018-09-06T08:03:27.501Z,19.17
2018-09-06T08:06:01.983Z,19.19
2018-09-06T08:08:31.118Z,19.18
2018-09-06T08:11:04.133Z,19.13
2018-09-06T08:13:34.097Z,19.12
2018-09-06T08:16:09.444Z,19.25
2018-09-06T08:18:46.104Z,19.30
2018-09-06T08:21:16.002Z,19.29
2018-09-06T08:23:44.926Z,19.25
2018-09-06T08:26:13.961Z,19.24
2018-09-06T08:28:42.858Z,19.24
2018-09-06T08:31:17.833Z,19.26
2018-09-06T08:33:46.727Z,19.23
2018-09-06T08:36:15.887Z,19.27
2018-09-06T08:38:48.707Z,19.25
2018-09-06T08:41:31.889Z,19.24
2018-09-06T08:44:04.897Z,19.28
2018-09-06T08:46:33.891Z,19.26
2018-09-06T08:49:09.029Z,19.30
2018-09-06T08:51:39.975Z,19.18
2018-09-06T08:54:10.886Z,19.23
2018-09-06T08:56:39.804Z,19.30
2018-09-06T08:59:08.717Z,19.32
2018-09-06T09:01:40.096Z,19.27
2018-09-06T09:04:12.898Z,19.31
2018-09-06T09:06:42.845Z,19.34
2018-09-06T09:09:13.674Z,19.38
2018-09-06T09:11:42.592Z,19.30
2018-09-06T09:14:11.541Z,19.26
2018-09-06T09:16:40.473Z,19.32
2018-09-06T09:19:09.612Z,19.36
2018-09-06T09:21:39.723Z,19.30
2018-09-06T09:24:12.386Z,19.29
2018-09-06T09:26:48.627Z,19.32
2018-09-06T09:29:21.028Z,19.35
2018-09-06T09:32:10.727Z,19.39
2018-09-06T09:34:49.900Z,19.45
2018-09-06T09:37:29.027Z,19.45
2018-09-06T09:39:57.909Z,19.43
2018-09-06T09:42:26.986Z,19.44
2018-09-06T09:44:55.909Z,19.47
2018-09-06T09:49:52.883Z,19.44
2018-09-06T09:52:22.274Z,19.44
2018-09-06T09:54:51.317Z,19.39
2018-09-06T09:57:21.261Z,19.37
2018-09-06T09:59:52.217Z,19.33
2018-09-06T10:02:28.675Z,19.36
2018-09-06T10:05:07.490Z,19.36
2018-09-06T10:07:53.688Z,19.40
2018-09-06T10:10:30.782Z,19.37
2018-09-06T10:16:01.553Z,19.42
2018-09-06T10:18:40.409Z,19.44
2018-09-06T10:21:12.635Z,19.40
2018-09-06T10:23:41.829Z,19.41
2018-09-06T10:26:11.774Z,19.40
2018-09-06T10:29:03.442Z,19.39
2018-09-06T10:31:37.089Z,19.39
2018-09-06T10:34:07.152Z,19.39
2018-09-06T10:36:36.059Z,19.39
2018-09-06T10:39:07.363Z,19.42
2018-09-06T10:41:36.332Z,19.41
2018-09-06T10:44:05.320Z,19.33
2018-09-06T10:46:34.227Z,19.31
2018-09-06T10:49:23.551Z,19.34
2018-09-06T11:00:32.869Z,19.35
2018-09-06T11:03:08.809Z,19.33
2018-09-06T11:05:38.002Z,19.34
2018-09-06T11:08:06.926Z,19.28
2018-09-06T11:10:35.815Z,19.35
2018-09-06T11:13:08.476Z,19.36
2018-09-06T11:15:37.387Z,19.38
2018-09-06T11:18:07.492Z,19.45
2018-09-06T11:20:36.335Z,19.46
2018-09-06T11:23:05.271Z,19.46
2018-09-06T11:25:44.599Z,19.54
2018-09-06T11:28:30.707Z,19.47
2018-09-06T11:30:59.876Z,19.50
2018-09-06T11:33:32.407Z,19.55
2018-09-06T11:36:01.330Z,19.56
2018-09-06T11:38:31.274Z,19.55
2018-09-06T11:41:05.901Z,19.62
2018-09-06T11:46:32.276Z,19.64
2018-09-06T11:49:01.269Z,19.56
2018-09-06T11:51:32.304Z,19.60
2018-09-06T11:54:02.392Z,19.67
2018-09-06T11:56:38.186Z,19.67
2018-09-06T11:59:31.430Z,19.59
2018-09-06T12:02:00.421Z,19.60
2018-09-06T12:04:31.428Z,19.59
2018-09-06T12:07:00.344Z,19.59
2018-09-06T12:09:29.378Z,19.54
2018-09-06T12:11:58.261Z,19.59
2018-09-06T12:14:27.153Z,19.60
2018-09-06T12:17:15.233Z,19.63
2018-09-06T12:19:44.151Z,19.71
2018-09-06T12:22:14.085Z,19.73
2018-09-06T12:24:43.283Z,19.79
2018-09-06T12:27:12.679Z,19.82
2018-09-06T12:29:45.671Z,19.83
2018-09-06T12:32:14.595Z,19.79
2018-09-06T12:34:43.657Z,19.81
2018-09-06T12:37:13.830Z,19.90
2018-09-06T12:39:44.011Z,19.99
2018-09-06T12:42:14.082Z,19.96
2018-09-06T12:44:43.274Z,20.08
2018-09-06T12:47:12.311Z,20.13
2018-09-06T12:49:42.471Z,20.12
2018-09-06T12:55:14.598Z,20.27
2018-09-06T12:57:48.134Z,20.31
2018-09-06T13:00:17.069Z,20.33
2018-09-06T13:02:45.982Z,20.23
2018-09-06T13:05:14.897Z,20.17
2018-09-06T13:07:56.662Z,20.21
2018-09-06T13:10:25.551Z,20.19
2018-09-06T13:12:54.465Z,20.31
2018-09-06T13:15:26.556Z,20.33
2018-09-06T13:17:55.508Z,20.53
2018-09-06T13:20:24.414Z,20.56
2018-09-06T13:23:05.639Z,20.56
2018-09-06T13:25:34.634Z,20.47
2018-09-06T13:28:03.571Z,20.64
2018-09-06T13:30:32.568Z,20.78
2018-09-06T13:33:01.564Z,20.79
2018-09-06T13:35:30.618Z,20.79
2018-09-06T13:38:05.051Z,20.78
2018-09-06T13:40:44.919Z,20.81
2018-09-06T13:43:30.801Z,20.85
2018-09-06T13:48:52.845Z,20.94
2018-09-06T13:51:21.880Z,21.02
2018-09-06T13:53:54.113Z,20.98
2018-09-06T13:56:26.154Z,20.89
2018-09-06T13:58:59.802Z,20.98
2018-09-06T14:01:29.870Z,21.02
2018-09-06T14:04:00.000Z,21.08
2018-09-06T14:06:30.980Z,21.10
2018-09-06T14:09:01.976Z,21.05
2018-09-06T14:11:30.887Z,21.11
2018-09-06T14:13:59.929Z,21.25
2018-09-06T14:16:32.413Z,21.18
2018-09-06T14:19:01.381Z,21.08
2018-09-06T14:21:30.379Z,20.99
2018-09-06T14:23:59.391Z,20.90
2018-09-06T14:26:34.175Z,20.81
2018-09-06T14:29:07.180Z,20.73
2018-09-06T14:31:42.096Z,20.70
2018-09-06T14:34:12.001Z,20.61
2018-09-06T14:36:46.869Z,20.61
2018-09-06T14:39:19.148Z,20.57
2018-09-06T14:41:55.553Z,20.52
2018-09-06T14:44:26.712Z,20.57
2018-09-06T14:46:59.642Z,20.61
2018-09-06T14:49:29.514Z,20.55
2018-09-06T14:51:59.458Z,20.51
2018-09-06T14:54:29.408Z,20.45
2018-09-06T14:56:58.628Z,20.50
2018-09-06T14:59:27.847Z,20.50
2018-09-06T15:01:56.762Z,20.47
2018-09-06T15:04:27.736Z,20.38
2018-09-06T15:07:01.432Z,20.40
2018-09-06T15:09:30.415Z,20.42
2018-09-06T15:12:00.450Z,20.40
2018-09-06T15:14:33.112Z,20.42
2018-09-06T15:17:04.435Z,20.50
2018-09-06T15:19:34.791Z,20.58
2018-09-06T15:22:04.215Z,20.61
2018-09-06T15:24:35.503Z,20.66
2018-09-06T15:27:05.228Z,20.65
2018-09-06T15:29:35.567Z,20.65
2018-09-06T15:32:18.279Z,20.59
2018-09-06T15:34:47.315Z,20.39
2018-09-06T15:37:22.096Z,20.29
2018-09-06T15:39:53.053Z,20.34
2018-09-06T15:42:22.044Z,20.39
2018-09-06T15:44:54.973Z,20.38
2018-09-06T15:47:36.443Z,20.37
2018-09-06T15:50:08.938Z,20.37
2018-09-06T15:52:38.008Z,20.39
2018-09-06T15:55:07.383Z,20.32
2018-09-06T15:57:39.085Z,20.27
2018-09-06T16:00:08.476Z,20.21
2018-09-06T16:02:37.577Z,20.16
2018-09-06T16:05:06.561Z,20.09
2018-09-06T16:07:35.569Z,20.13
2018-09-06T16:10:04.530Z,20.17
2018-09-06T16:12:35.952Z,20.20
2018-09-06T16:15:07.041Z,20.22
2018-09-06T16:17:41.081Z,20.29
2018-09-06T16:20:18.397Z,20.39
2018-09-06T16:22:47.433Z,20.36
2018-09-06T16:25:22.500Z,20.32
2018-09-06T16:27:57.186Z,20.33
2018-09-06T16:30:29.614Z,20.32
2018-09-06T16:32:58.707Z,20.28
2018-09-06T16:35:28.848Z,20.34
2018-09-06T16:38:02.074Z,20.33
2018-09-06T16:40:31.099Z,20.30
2018-09-06T16:43:08.576Z,20.26
2018-09-06T16:45:40.705Z,20.25
2018-09-06T16:48:14.618Z,20.22
2018-09-06T16:50:48.764Z,20.23
2018-09-06T16:53:17.719Z,20.22
2018-09-06T16:55:49.757Z,20.21
2018-09-06T16:58:22.899Z,20.10
2018-09-06T17:00:53.993Z,20.06
2018-09-06T17:03:23.055Z,20.04
2018-09-06T17:05:53.566Z,20.04
2018-09-06T17:08:22.575Z,20.02
2018-09-06T17:10:51.699Z,20.02
2018-09-06T17:13:26.076Z,20.07
2018-09-06T17:15:59.336Z,20.03
2018-09-06T17:18:29.268Z,20.01
2018-09-06T17:21:03.411Z,19.97
2018-09-06T17:23:33.422Z,19.95
2018-09-06T17:26:05.974Z,19.92
2018-09-06T17:28:34.936Z,19.89
2018-09-06T17:31:05.332Z,19.94
2018-09-06T17:33:41.005Z,20.00
2018-09-06T17:36:30.405Z,19.95
2018-09-06T17:38:59.860Z,19.93
2018-09-06T17:41:29.181Z,19.86
2018-09-06T17:43:58.707Z,19.88
2018-09-06T17:46:29.311Z,19.89
2018-09-06T17:49:00.865Z,19.89
2018-09-06T17:51:34.501Z,19.84
2018-09-06T17:54:06.269Z,19.77
2018-09-06T17:56:40.353Z,19.74
2018-09-06T17:59:09.690Z,19.65
2018-09-06T18:01:42.320Z,19.67
2018-09-06T18:04:13.668Z,19.64
2018-09-06T18:06:43.071Z,19.67
2018-09-06T18:09:18.165Z,19.65
2018-09-06T18:11:47.728Z,19.60
2018-09-06T18:14:17.206Z,19.62
2018-09-06T18:16:46.234Z,19.61
2018-09-06T18:19:19.443Z,19.46
2018-09-06T18:21:59.153Z,19.51
2018-09-06T18:24:29.142Z,19.43
2018-09-06T18:26:58.113Z,19.36
2018-09-06T18:29:27.967Z,19.27
2018-09-06T18:31:58.130Z,19.22
2018-09-06T18:34:27.611Z,19.18
2018-09-06T18:36:57.385Z,19.18
2018-09-06T18:39:26.359Z,19.23
2018-09-06T18:41:55.307Z,19.28
2018-09-06T18:44:24.343Z,19.25
2018-09-06T18:46:56.452Z,19.26
2018-09-06T18:49:26.388Z,19.23
2018-09-06T18:51:56.312Z,19.16
2018-09-06T18:54:25.334Z,19.17
2018-09-06T18:56:57.644Z,19.16
2018-09-06T18:59:34.373Z,19.09
2018-09-06T19:02:04.390Z,19.08
2018-09-06T19:04:33.668Z,19.13
2018-09-06T19:07:05.007Z,19.11
2018-09-06T19:09:34.587Z,19.16
2018-09-06T19:12:03.873Z,19.08
2018-09-06T19:14:38.104Z,19.10
2018-09-06T19:17:09.428Z,19.07
2018-09-06T19:19:38.520Z,18.95
2018-09-06T19:22:12.146Z,18.90
2018-09-06T19:27:34.331Z,18.89
2018-09-06T19:30:05.296Z,18.85
2018-09-06T19:32:36.300Z,18.79
2018-09-06T19:35:28.296Z,18.79
2018-09-06T19:38:14.930Z,18.81
2018-09-06T19:41:01.740Z,18.82
2018-09-06T19:43:32.674Z,18.81
2018-09-06T19:46:01.723Z,18.67
2018-09-06T19:48:33.755Z,18.69
2018-09-06T19:51:02.952Z,18.72
2018-09-06T19:53:35.515Z,18.73
2018-09-06T19:56:06.796Z,18.67
2018-09-06T19:58:39.075Z,18.72
2018-09-06T20:01:10.079Z,18.61
2018-09-06T20:03:39.104Z,18.43
2018-09-06T20:06:13.113Z,18.52
2018-09-06T20:08:44.087Z,18.57
2018-09-06T20:11:20.030Z,18.60
2018-09-06T20:13:49.144Z,18.58
2018-09-06T20:16:18.220Z,18.57
2018-09-06T20:18:53.792Z,18.59
2018-09-06T20:21:28.145Z,18.60
2018-09-06T20:23:57.167Z,18.60
2018-09-06T20:26:38.465Z,18.47
2018-09-06T20:29:07.634Z,18.46
2018-09-06T20:31:42.159Z,18.47
2018-09-06T20:34:14.386Z,18.47
2018-09-06T20:36:57.970Z,18.50
2018-09-06T20:39:47.069Z,18.47
2018-09-06T20:42:19.846Z,18.45
2018-09-06T20:44:48.766Z,18.42
2018-09-06T20:47:17.810Z,18.40
2018-09-06T20:49:57.329Z,18.31
2018-09-06T20:52:29.661Z,18.39
2018-09-06T20:55:00.833Z,18.39
2018-09-06T20:57:41.757Z,18.35
2018-09-06T21:00:15.001Z,18.35
2018-09-06T21:02:59.588Z,18.25
2018-09-06T21:05:38.118Z,18.34
2018-09-06T21:08:12.236Z,18.33
2018-09-06T21:10:50.834Z,18.32
2018-09-06T21:13:20.702Z,18.32
2018-09-06T21:15:49.842Z,18.29
2018-09-06T21:18:25.755Z,18.21
2018-09-06T21:20:56.945Z,18.20
2018-09-06T21:23:26.065Z,18.20
2018-09-06T21:28:50.225Z,18.17
2018-09-06T21:31:19.275Z,18.19
2018-09-06T21:33:48.292Z,18.20
2018-09-06T21:36:21.487Z,18.13
2018-09-06T21:39:00.668Z,18.10
2018-09-06T21:41:43.204Z,18.11
2018-09-06T21:44:19.390Z,18.14
2018-09-06T21:46:48.525Z,18.12
2018-09-06T21:49:17.496Z,18.09
2018-09-06T21:52:06.821Z,18.04
2018-09-06T21:54:46.146Z,18.06
2018-09-06T21:57:21.016Z,18.15
2018-09-06T21:59:51.922Z,18.05
2018-09-06T22:02:26.240Z,18.08
2018-09-06T22:04:56.206Z,18.04
2018-09-06T22:07:34.756Z,18.08
2018-09-06T22:10:08.279Z,18.04
2018-09-06T22:12:39.463Z,18.05
2018-09-06T22:15:14.568Z,17.99
2018-09-06T22:17:43.485Z,17.98
2018-09-06T22:20:17.263Z,18.05
2018-09-06T22:22:57.376Z,18.07
2018-09-06T22:25:26.590Z,18.00
2018-09-06T22:27:55.482Z,18.04
2018-09-06T22:30:35.800Z,18.04
2018-09-06T22:33:05.030Z,17.96
2018-09-06T22:35:34.265Z,17.91
2018-09-06T22:38:09.359Z,18.01
2018-09-06T22:40:50.431Z,17.98
2018-09-06T22:43:23.302Z,18.02
2018-09-06T22:45:52.265Z,17.98
2018-09-06T22:48:21.266Z,17.91
2018-09-06T22:51:02.850Z,17.95
2018-09-06T22:53:32.841Z,17.91
2018-09-06T22:56:05.679Z,17.99
2018-09-06T22:58:34.530Z,18.03
2018-09-06T23:01:03.424Z,18.02
2018-09-06T23:03:38.041Z,17.90
2018-09-06T23:06:07.154Z,17.91
2018-09-06T23:08:36.217Z,17.97
2018-09-06T23:11:05.156Z,18.01
2018-09-06T23:13:34.076Z,18.01
2018-09-06T23:16:02.976Z,18.04
2018-09-06T23:18:32.040Z,18.06
2018-09-06T23:21:01.088Z,17.98
2018-09-06T23:23:30.068Z,17.95
2018-09-06T23:26:04.645Z,17.89
2018-09-06T23:28:33.572Z,17.88
2018-09-06T23:31:02.450Z,17.84
2018-09-06T23:33:42.307Z,17.89
2018-09-06T23:36:11.196Z,17.80
2018-09-06T23:38:40.078Z,17.76
2018-09-06T23:41:08.980Z,17.71
2018-09-06T23:43:37.889Z,17.75
2018-09-06T23:46:08.872Z,17.66
2018-09-06T23:48:37.882Z,17.63
2018-09-06T23:51:06.784Z,17.59
2018-09-06T23:53:42.933Z,17.50
2018-09-06T23:56:11.842Z,17.41
2018-09-06T23:58:40.706Z,17.35
